Time;durP1;ratioP1;P1;durP2;ratioP2;P2;SDS_P1;SDS_P2;PMS_P1;PMS_P2;Temp;Humidity;BMP_temperature;BMP_pressure;BME280_temperature;BME280_humidity;BME280_pressure;Samples;Min_cycle;Max_cycle;Signal;HPM_P1;HPM_P2
2021/11/13 00:00:07;;;;;;;;;;;;;;;2.49;100.00;100903.59;5069894;28;20018;-75
2021/11/13 00:02:42;;;;;;;;;;;;;;;2.43;100.00;100912.78;5069914;28;20011;-75
2021/11/13 00:05:08;;;;;;;;;;;;;;;2.43;100.00;100906.53;5069904;28;20572;-76
2021/11/13 00:07:35;;;;;;;;;;;;;;;2.40;100.00;100902.19;5069433;28;20022;-75
2021/11/13 00:10:03;;;;;;;;;;;;;;;2.36;100.00;100900.59;5070981;28;20022;-75
2021/11/13 00:12:29;;;;;;;;;;;;;;;2.35;100.00;100885.44;5086318;28;20340;-75
2021/11/13 00:14:55;;;;;;;;;;;;;;;2.31;100.00;100886.50;5091329;28;20306;-75
2021/11/13 00:17:22;;;;;;;;;;;;;;;2.30;100.00;100876.75;5091325;28;20393;-75
2021/11/13 00:19:48;;;;;;;;;;;;;;;2.29;100.00;100862.47;5091203;28;19931;-75
2021/11/13 00:22:14;;;;;;;;;;;;;;;2.30;100.00;100863.38;5091721;28;20019;-75
2021/11/13 00:24:41;;;;;;;;;;;;;;;2.30;100.00;100864.22;5091306;28;20395;-74
2021/11/13 00:27:08;;;;;;;;;;;;;;;2.34;100.00;100846.22;5091453;28;19932;-75
2021/11/13 00:29:35;;;;;;;;;;;;;;;2.35;100.00;100845.25;5091068;28;19967;-75
2021/11/13 00:32:01;;;;;;;;;;;;;;;2.37;100.00;100847.88;5090996;28;20038;-75
2021/11/13 00:34:27;;;;;;;;;;;;;;;2.39;100.00;100846.00;5091525;28;19930;-76
2021/11/13 00:36:54;;;;;;;;;;;;;;;2.41;100.00;100839.63;5091094;28;20379;-75
2021/11/13 00:39:20;;;;;;;;;;;;;;;2.44;100.00;100839.47;5089861;28;20300;-75
2021/11/13 00:41:49;;;;;;;;;;;;;;;2.46;100.00;100832.25;5091090;28;20027;-75
2021/11/13 00:44:17;;;;;;;;;;;;;;;2.49;100.00;100834.78;5091294;28;20468;-75
2021/11/13 00:46:43;;;;;;;;;;;;;;;2.51;100.00;100832.03;5087199;28;19934;-75
2021/11/13 00:49:10;;;;;;;;;;;;;;;2.51;100.00;100821.31;5070554;28;19928;-75
2021/11/13 00:51:36;;;;;;;;;;;;;;;2.49;100.00;100834.78;5071096;28;19925;-76
2021/11/13 00:54:03;;;;;;;;;;;;;;;2.49;100.00;100842.81;5070172;28;20019;-76
2021/11/13 00:56:30;;;;;;;;;;;;;;;2.46;100.00;100834.94;5075179;28;19924;-75
2021/11/13 00:58:56;;;;;;;;;;;;;;;2.46;100.00;100809.94;5074514;28;20023;-75
2021/11/13 01:01:24;;;;;;;;;;;;;;;2.47;100.00;100812.56;5075107;28;20358;-75
2021/11/13 01:03:50;;;;;;;;;;;;;;;2.46;100.00;100796.53;5074896;28;20015;-75
2021/11/13 01:06:17;;;;;;;;;;;;;;;2.47;100.00;100809.00;5074911;28;19931;-75
2021/11/13 01:08:47;;;;;;;;;;;;;;;2.44;100.00;100807.31;5074728;28;19928;-75
2021/11/13 01:11:14;;;;;;;;;;;;;;;2.43;100.00;100800.25;5074557;28;20370;-75
2021/11/13 01:13:40;;;;;;;;;;;;;;;2.42;100.00;100792.25;5075414;28;19925;-75
2021/11/13 01:16:06;;;;;;;;;;;;;;;2.40;100.00;100796.81;5074502;28;20370;-75
2021/11/13 01:18:34;;;;;;;;;;;;;;;2.39;100.00;100806.66;5073297;28;19924;-75
2021/11/13 01:21:00;;;;;;;;;;;;;;;2.37;100.00;100794.31;5074436;28;19960;-75
2021/11/13 01:23:26;;;;;;;;;;;;;;;2.33;100.00;100810.50;5074266;28;19925;-75
2021/11/13 01:25:53;;;;;;;;;;;;;;;2.32;100.00;100802.53;5074224;28;19925;-76
2021/11/13 01:28:20;;;;;;;;;;;;;;;2.31;100.00;100811.50;5074179;28;20294;-75
2021/11/13 01:30:46;;;;;;;;;;;;;;;2.33;100.00;100798.91;5074387;28;19924;-75
2021/11/13 01:33:12;;;;;;;;;;;;;;;2.35;100.00;100813.09;5074317;28;19978;-75
2021/11/13 01:35:40;;;;;;;;;;;;;;;2.38;100.00;100817.44;5074568;28;19931;-75
2021/11/13 01:38:06;;;;;;;;;;;;;;;2.40;100.00;100811.09;5074374;28;20027;-76
2021/11/13 01:40:35;;;;;;;;;;;;;;;2.42;100.00;100805.66;5073965;28;19930;-75
2021/11/13 01:43:01;;;;;;;;;;;;;;;2.43;100.00;100802.03;5073851;28;20427;-74
2021/11/13 01:45:28;;;;;;;;;;;;;;;2.47;100.00;100811.66;5073890;28;19931;-75
2021/11/13 01:47:54;;;;;;;;;;;;;;;2.48;100.00;100819.63;5073925;28;20363;-74
2021/11/13 01:50:22;;;;;;;;;;;;;;;2.51;100.00;100819.50;5073998;28;20035;-74
2021/11/13 01:52:50;;;;;;;;;;;;;;;2.55;100.00;100816.69;5073760;28;20023;-75
2021/11/13 01:55:21;;;;;;;;;;;;;;;2.54;100.00;100798.84;5074046;28;19951;-75
2021/11/13 01:57:48;;;;;;;;;;;;;;;2.57;100.00;100786.19;5073609;28;19960;-75
2021/11/13 02:00:17;;;;;;;;;;;;;;;2.58;100.00;100790.63;5073538;28;19946;-74
2021/11/13 02:02:43;;;;;;;;;;;;;;;2.60;100.00;100778.00;5073546;28;19931;-74
2021/11/13 02:05:10;;;;;;;;;;;;;;;2.61;100.00;100785.09;5073769;28;19931;-74
2021/11/13 02:07:36;;;;;;;;;;;;;;;2.65;100.00;100794.75;5073089;28;19925;-74
2021/11/13 02:10:05;;;;;;;;;;;;;;;2.67;100.00;100782.16;5073280;28;19959;-74
2021/11/13 02:12:31;;;;;;;;;;;;;;;2.69;100.00;100782.06;5073674;28;20023;-74
2021/11/13 02:14:57;;;;;;;;;;;;;;;2.70;100.00;100786.50;5073300;28;20015;-74
2021/11/13 02:17:24;;;;;;;;;;;;;;;2.70;100.00;100773.09;5073467;28;20305;-73
2021/11/13 02:19:51;;;;;;;;;;;;;;;2.74;100.00;100776.47;5073022;28;19924;-75
2021/11/13 02:22:18;;;;;;;;;;;;;;;2.72;100.00;100776.56;5073471;28;20023;-74
2021/11/13 02:24:44;;;;;;;;;;;;;;;2.71;100.00;100782.84;5073394;28;19924;-75
2021/11/13 02:27:11;;;;;;;;;;;;;;;2.70;100.00;100786.50;5073085;28;19943;-75
2021/11/13 02:29:40;;;;;;;;;;;;;;;2.71;100.00;100782.84;5073239;28;19924;-74
2021/11/13 02:32:07;;;;;;;;;;;;;;;2.70;100.00;100791.84;5072971;28;20034;-75
2021/11/13 02:34:33;;;;;;;;;;;;;;;2.70;100.00;100796.31;5072006;28;20027;-74
2021/11/13 02:37:01;;;;;;;;;;;;;;;2.68;100.00;100786.53;5071458;28;19925;-74
2021/11/13 02:39:27;;;;;;;;;;;;;;;2.67;100.00;100770.53;5072957;28;20024;-75
2021/11/13 02:41:54;;;;;;;;;;;;;;;2.65;100.00;100778.66;5073013;28;20015;-74
2021/11/13 02:44:21;;;;;;;;;;;;;;;2.65;100.00;100777.78;5072978;28;19928;-74
2021/11/13 02:46:50;;;;;;;;;;;;;;;2.63;100.00;100777.88;5073375;28;19963;-75
2021/11/13 02:49:17;;;;;;;;;;;;;;;2.64;100.00;100770.69;5074619;28;20286;-75
2021/11/13 02:51:44;;;;;;;;;;;;;;;2.63;100.00;100763.59;5072958;28;19928;-74
2021/11/13 02:54:12;;;;;;;;;;;;;;;2.62;100.00;100754.69;5072450;28;20343;-75
2021/11/13 02:56:38;;;;;;;;;;;;;;;2.62;100.00;100769.88;5072655;28;19931;-75
2021/11/13 02:59:04;;;;;;;;;;;;;;;2.59;100.00;100776.28;5072514;28;19925;-74
2021/11/13 03:01:32;;;;;;;;;;;;;;;2.57;100.00;100767.44;5072374;28;19960;-74
2021/11/13 03:03:58;;;;;;;;;;;;;;;2.61;100.00;100762.81;5072613;28;19931;-75
2021/11/13 03:06:24;;;;;;;;;;;;;;;2.60;100.00;100763.75;5072363;28;19960;-74
2021/11/13 03:08:51;;;;;;;;;;;;;;;2.58;100.00;100766.50;5072296;28;20015;-74
2021/11/13 03:11:19;;;;;;;;;;;;;;;2.58;100.00;100761.13;5072227;28;19978;-74
2021/11/13 03:13:47;;;;;;;;;;;;;;;2.58;100.00;100758.47;5072247;28;20345;-74
2021/11/13 03:16:15;;;;;;;;;;;;;;;2.59;100.00;100773.59;5072277;28;20015;-76
2021/11/13 03:18:41;;;;;;;;;;;;;;;2.57;100.00;100775.47;5071297;28;19966;-75
2021/11/13 03:21:08;;;;;;;;;;;;;;;2.58;100.00;100770.97;5072080;28;20015;-75
2021/11/13 03:23:39;;;;;;;;;;;;;;;2.56;100.00;100773.72;5072206;28;19924;-75
2021/11/13 03:26:07;;;;;;;;;;;;;;;2.55;100.00;100765.75;5072109;28;19936;-76
2021/11/13 03:28:37;;;;;;;;;;;;;;;2.54;100.00;100753.28;5071818;28;20542;-76
2021/11/13 03:31:05;;;;;;;;;;;;;;;2.54;100.00;100735.44;5071835;28;19932;-76
2021/11/13 03:33:32;;;;;;;;;;;;;;;2.54;100.00;100737.22;5072249;28;19978;-76
2021/11/13 03:35:59;;;;;;;;;;;;;;;2.56;100.00;100736.22;5071667;28;20416;-74
2021/11/13 03:38:26;;;;;;;;;;;;;;;2.54;100.00;100731.84;5071744;28;19924;-74
2021/11/13 03:40:52;;;;;;;;;;;;;;;2.54;100.00;100727.38;5071709;28;20412;-74
2021/11/13 03:43:19;;;;;;;;;;;;;;;2.54;100.00;100718.47;5071848;28;19924;-74
2021/11/13 03:45:47;;;;;;;;;;;;;;;2.54;100.00;100731.84;5071635;28;20023;-74
2021/11/13 03:48:14;;;;;;;;;;;;;;;2.51;100.00;100723.03;5071074;28;20027;-73
2021/11/13 03:50:40;;;;;;;;;;;;;;;2.51;100.00;100717.69;5071940;28;19931;-73
2021/11/13 03:53:07;;;;;;;;;;;;;;;2.53;100.00;100719.44;5071420;28;20039;-74
2021/11/13 03:55:34;;;;;;;;;;;;;;;2.54;100.00;100718.47;5071863;28;19955;-74
2021/11/13 03:58:00;;;;;;;;;;;;;;;2.53;100.00;100708.72;5071752;28;20035;-73
2021/11/13 04:00:27;;;;;;;;;;;;;;;2.55;100.00;100706.81;5072903;28;20019;-74
2021/11/13 04:02:55;;;;;;;;;;;;;;;2.55;100.00;100728.25;5071611;28;20011;-74
2021/11/13 04:05:22;;;;;;;;;;;;;;;2.56;100.00;100717.44;5071675;28;20338;-73
2021/11/13 04:07:48;;;;;;;;;;;;;;;2.57;100.00;100704.94;5071003;28;20406;-74
2021/11/13 04:10:15;;;;;;;;;;;;;;;2.59;100.00;100708.38;5071176;28;20024;-74
2021/11/13 04:12:41;;;;;;;;;;;;;;;2.60;100.00;100704.78;5071522;28;20516;-74
2021/11/13 04:15:09;;;;;;;;;;;;;;;2.59;100.00;100713.75;5070268;28;20023;-74
2021/11/13 04:17:35;;;;;;;;;;;;;;;2.61;100.00;100704.69;5071037;28;20019;-74
2021/11/13 04:20:03;;;;;;;;;;;;;;;2.58;100.00;100706.66;5071411;28;20355;-73
2021/11/13 04:22:30;;;;;;;;;;;;;;;2.59;100.00;100709.28;5071127;28;19963;-74
2021/11/13 04:24:56;;;;;;;;;;;;;;;2.58;100.00;100704.84;5071246;28;20015;-74
2021/11/13 04:27:22;;;;;;;;;;;;;;;2.57;100.00;100707.63;5071140;28;20019;-74
2021/11/13 04:29:49;;;;;;;;;;;;;;;2.58;100.00;100698.59;5070890;28;20274;-74
2021/11/13 04:32:16;;;;;;;;;;;;;;;2.57;100.00;100692.38;5071563;28;20441;-74
2021/11/13 04:34:47;;;;;;;;;;;;;;;2.59;100.00;100692.31;5071133;28;19951;-74
2021/11/13 04:37:16;;;;;;;;;;;;;;;2.57;100.00;100699.56;5071681;28;19978;-73
2021/11/13 04:39:43;;;;;;;;;;;;;;;2.58;100.00;100703.97;5070879;28;19978;-74
2021/11/13 04:42:09;;;;;;;;;;;;;;;2.58;100.00;100693.25;5071271;28;20011;-74
2021/11/13 04:44:36;;;;;;;;;;;;;;;2.58;100.00;100690.56;5073786;28;20019;-74
2021/11/13 04:47:04;;;;;;;;;;;;;;;2.59;100.00;100701.25;5071119;28;20301;-74
2021/11/13 04:49:31;;;;;;;;;;;;;;;2.60;100.00;100697.59;5069774;28;20424;-74
2021/11/13 04:51:58;;;;;;;;;;;;;;;2.61;100.00;100699.34;5070925;28;19932;-74
2021/11/13 04:54:25;;;;;;;;;;;;;;;2.63;100.00;100699.25;5071201;28;20016;-74
2021/11/13 04:56:53;;;;;;;;;;;;;;;2.64;100.00;100717.94;5070793;28;19925;-76
2021/11/13 04:59:20;;;;;;;;;;;;;;;2.65;100.00;100726.88;5070664;28;19928;-75
2021/11/13 05:01:46;;;;;;;;;;;;;;;2.67;100.00;100724.97;5071020;28;20016;-75
2021/11/13 05:04:12;;;;;;;;;;;;;;;2.67;100.00;100733.91;5070724;28;20313;-75
2021/11/13 05:06:38;;;;;;;;;;;;;;;2.69;100.00;100736.50;5071155;28;20457;-75
2021/11/13 05:09:05;;;;;;;;;;;;;;;2.69;100.00;100731.13;5070461;28;19960;-75
2021/11/13 05:11:33;;;;;;;;;;;;;;;2.68;100.00;100732.94;5070901;28;20019;-76
2021/11/13 05:13:59;;;;;;;;;;;;;;;2.69;100.00;100744.53;5070538;28;20421;-76
2021/11/13 05:16:25;;;;;;;;;;;;;;;2.70;100.00;100750.75;5070596;28;20011;-75
2021/11/13 05:18:51;;;;;;;;;;;;;;;2.68;100.00;100748.16;5071059;28;20019;-75
2021/11/13 05:21:18;;;;;;;;;;;;;;;2.68;100.00;100749.00;5069399;28;20110;-76
2021/11/13 05:23:44;;;;;;;;;;;;;;;2.70;100.00;100753.44;5070896;28;20027;-75
2021/11/13 05:26:11;;;;;;;;;;;;;;;2.70;100.00;100757.00;5070647;28;19924;-75
2021/11/13 05:28:43;;;;;;;;;;;;;;;2.70;100.00;100766.84;5070733;28;20026;-76
2021/11/13 05:31:10;;;;;;;;;;;;;;;2.67;100.00;100765.19;5070559;28;19932;-75
2021/11/13 05:33:37;;;;;;;;;;;;;;;2.68;100.00;100761.56;5070790;28;19991;-76
2021/11/13 05:36:04;;;;;;;;;;;;;;;2.65;100.00;100745.63;5070607;28;20007;-75
2021/11/13 05:38:30;;;;;;;;;;;;;;;2.64;100.00;100765.34;5070299;28;19935;-75
2021/11/13 05:40:56;;;;;;;;;;;;;;;2.62;100.00;100759.16;5070772;28;20023;-75
2021/11/13 05:43:23;;;;;;;;;;;;;;;2.60;100.00;100755.69;5074094;28;20023;-75
2021/11/13 05:45:50;;;;;;;;;;;;;;;2.59;100.00;100756.63;5078783;28;19924;-75
2021/11/13 05:48:17;;;;;;;;;;;;;;;2.56;100.00;100754.97;5074306;28;20450;-75
2021/11/13 05:50:44;;;;;;;;;;;;;;;2.60;100.00;100755.69;5083857;28;19931;-75
2021/11/13 05:53:10;;;;;;;;;;;;;;;2.57;100.00;100747.81;5093857;28;20027;-75
2021/11/13 05:55:37;;;;;;;;;;;;;;;2.54;100.00;100750.63;5093722;28;20031;-75
2021/11/13 05:58:03;;;;;;;;;;;;;;;2.55;100.00;100755.91;5094034;28;20355;-75
2021/11/13 06:00:29;;;;;;;;;;;;;;;2.55;100.00;100758.59;5083452;28;20019;-75
2021/11/13 06:02:58;;;;;;;;;;;;;;;2.57;100.00;100770.13;5089097;28;19933;-76
2021/11/13 06:05:24;;;;;;;;;;;;;;;2.55;100.00;100761.25;5092313;28;20027;-75
2021/11/13 06:07:50;;;;;;;;;;;;;;;2.56;100.00;100767.50;5091687;28;20019;-75
2021/11/13 06:10:18;;;;;;;;;;;;;;;2.57;100.00;100763.91;5093774;28;19924;-76
2021/11/13 06:12:44;;;;;;;;;;;;;;;2.56;100.00;100748.75;5093610;28;20285;-73
2021/11/13 06:15:11;;;;;;;;;;;;;;;2.54;100.00;100748.81;5093619;28;20031;-74
2021/11/13 06:17:38;;;;;;;;;;;;;;;2.54;100.00;100747.94;5093401;28;19932;-75
2021/11/13 06:20:07;;;;;;;;;;;;;;;2.54;100.00;100743.47;5092270;28;20376;-75
2021/11/13 06:22:34;;;;;;;;;;;;;;;2.54;100.00;100739.91;5093764;28;19985;-75
2021/11/13 06:25:05;;;;;;;;;;;;;;;2.55;100.00;100749.69;5093393;28;19928;-75
2021/11/13 06:27:31;;;;;;;;;;;;;;;2.59;100.00;100762.00;5091417;28;20018;-74
2021/11/13 06:29:58;;;;;;;;;;;;;;;2.60;100.00;100763.75;5091604;28;20026;-74
2021/11/13 06:32:24;;;;;;;;;;;;;;;2.61;100.00;100765.50;5090323;28;19967;-74
2021/11/13 06:34:50;;;;;;;;;;;;;;;2.63;100.00;100768.94;5091532;28;19926;-74
2021/11/13 06:37:18;;;;;;;;;;;;;;;2.64;100.00;100773.38;5084499;28;19924;-75
2021/11/13 06:39:44;;;;;;;;;;;;;;;2.64;100.00;100779.59;5079485;28;19971;-74
2021/11/13 06:42:10;;;;;;;;;;;;;;;2.65;100.00;100777.78;5089578;28;19958;-74
2021/11/13 06:44:37;;;;;;;;;;;;;;;2.68;100.00;100783.00;5088749;28;20026;-74
2021/11/13 06:47:03;;;;;;;;;;;;;;;2.67;100.00;100776.78;5092845;28;20030;-75
2021/11/13 06:49:30;;;;;;;;;;;;;;;2.71;100.00;100777.47;5071566;28;20200;-74
2021/11/13 06:51:56;;;;;;;;;;;;;;;2.73;100.00;100780.13;5073413;28;19925;-74
2021/11/13 06:54:23;;;;;;;;;;;;;;;2.73;100.00;100774.75;5072918;28;20102;-76
2021/11/13 06:56:50;;;;;;;;;;;;;;;2.76;100.00;100780.81;5073219;28;20560;-77
2021/11/13 06:59:16;;;;;;;;;;;;;;;2.75;100.00;100781.75;5072689;28;19931;-75
2021/11/13 07:01:43;;;;;;;;;;;;;;;2.78;100.00;100781.63;5072320;28;19924;-76
2021/11/13 07:04:09;;;;;;;;;;;;;;;2.77;100.00;100781.72;5072222;28;19959;-76
2021/11/13 07:06:35;;;;;;;;;;;;;;;2.78;100.00;100784.31;5072358;28;20388;-76
2021/11/13 07:09:02;;;;;;;;;;;;;;;2.79;100.00;100782.50;5072529;28;20047;-76
2021/11/13 07:11:29;;;;;;;;;;;;;;;2.80;100.00;100782.41;5072574;28;19928;-75
2021/11/13 07:13:56;;;;;;;;;;;;;;;2.85;100.00;100780.38;5071738;28;20023;-76
2021/11/13 07:16:22;;;;;;;;;;;;;;;2.85;100.00;100780.38;5072229;28;20019;-76
2021/11/13 07:18:48;;;;;;;;;;;;;;;2.88;100.00;100783.88;5071386;28;19971;-75
2021/11/13 07:21:15;;;;;;;;;;;;;;;2.92;100.00;100791.69;5070942;28;20027;-75
2021/11/13 07:23:41;;;;;;;;;;;;;;;2.93;100.00;100788.06;5070535;28;20031;-75
2021/11/13 07:26:08;;;;;;;;;;;;;;;2.97;100.00;100794.16;5069905;28;19928;-75
2021/11/13 07:28:38;;;;;;;;;;;;;;;2.97;100.00;100794.16;5071094;28;19977;-75
2021/11/13 07:31:05;;;;;;;;;;;;;;;3.04;100.00;100787.53;5071598;28;20007;-76
2021/11/13 07:33:31;;;;;;;;;;;;;;;3.06;100.00;100791.03;5074414;28;20019;-75
2021/11/13 07:35:57;;;;;;;;;;;;;;;3.11;100.00;100788.09;5081471;28;20370;-75
2021/11/13 07:38:23;;;;;;;;;;;;;;;3.15;100.00;100800.41;5082190;28;19932;-75
2021/11/13 07:40:50;;;;;;;;;;;;;;;3.16;100.00;100792.28;5083976;28;20531;-74
2021/11/13 07:43:16;;;;;;;;;;;;;;;3.20;100.00;100795.69;5088617;28;19924;-75
2021/11/13 07:45:44;;;;;;;;;;;;;;;3.26;100.00;100790.03;5085934;28;19928;-75
2021/11/13 07:48:10;;;;;;;;;;;;;;;3.26;100.00;100784.69;5071891;28;20031;-75
2021/11/13 07:50:37;;;;;;;;;;;;;;;3.27;100.00;100782.84;5075810;28;20302;-75
2021/11/13 07:53:03;;;;;;;;;;;;;;;3.28;100.00;100785.47;5071908;28;19924;-75
2021/11/13 07:55:30;;;;;;;;;;;;;;;3.27;100.00;100780.16;5071565;28;19935;-74
2021/11/13 07:57:56;;;;;;;;;;;;;;;3.31;100.00;100792.50;5070500;28;20026;-75
2021/11/13 08:00:22;;;;;;;;;;;;;;;3.32;100.00;100795.09;5071704;28;20301;-74
2021/11/13 08:02:50;;;;;;;;;;;;;;;3.40;100.00;100792.03;5071814;28;19925;-75
2021/11/13 08:05:17;;;;;;;;;;;;;;;3.38;100.00;100776.94;5071306;28;20019;-74
2021/11/13 08:07:44;;;;;;;;;;;;;;;3.37;100.00;100781.47;5071815;28;19929;-74
2021/11/13 08:10:11;;;;;;;;;;;;;;;3.36;100.00;100771.66;5070775;28;19978;-74
2021/11/13 08:12:37;;;;;;;;;;;;;;;3.43;100.00;100781.13;5071759;28;20472;-75
2021/11/13 08:15:04;;;;;;;;;;;;;;;3.48;100.00;100775.53;5071847;28;19928;-75
2021/11/13 08:17:30;;;;;;;;;;;;;;;3.52;100.00;100777.13;5071474;28;20421;-75
2021/11/13 08:19:58;;;;;;;;;;;;;;;3.55;100.00;100774.28;5071689;28;20020;-75
2021/11/13 08:22:25;;;;;;;;;;;;;;;3.57;100.00;100772.41;5071772;28;20014;-74
2021/11/13 08:24:51;;;;;;;;;;;;;;;3.60;100.00;100774.91;5071783;28;20454;-73
2021/11/13 08:27:18;;;;;;;;;;;;;;;3.63;100.00;100776.56;5071966;28;20022;-74
2021/11/13 08:29:44;;;;;;;;;;;;;;;3.68;100.00;100774.53;5071906;28;20020;-75
2021/11/13 08:32:14;;;;;;;;;;;;;;;3.70;100.00;100769.91;5090967;28;19924;-75
2021/11/13 08:34:41;;;;;;;;;;;;;;;3.67;100.00;100768.28;5089911;28;19924;-75
2021/11/13 08:37:08;;;;;;;;;;;;;;;3.72;100.00;100776.09;5071670;28;20022;-74
2021/11/13 08:39:35;;;;;;;;;;;;;;;3.81;100.00;100785.50;5071321;28;20015;-75
2021/11/13 08:42:02;;;;;;;;;;;;;;;3.78;100.00;100778.47;5071354;28;19924;-75
2021/11/13 08:44:28;;;;;;;;;;;;;;;3.87;100.00;100784.31;5071663;28;20507;-75
2021/11/13 08:46:56;;;;;;;;;;;;;;;3.89;100.00;100788.66;5071019;28;19975;-76
2021/11/13 08:49:22;;;;;;;;;;;;;;;3.89;100.00;100782.41;5071405;28;19970;-74
2021/11/13 08:51:48;;;;;;;;;;;;;;;3.84;100.00;100785.34;5071301;28;20441;-75
2021/11/13 08:54:16;;;;;;;;;;;;;;;3.84;100.00;100791.56;5071345;28;19986;-75
2021/11/13 08:56:42;;;;;;;;;;;;;;;3.91;100.00;100792.13;5071185;28;20007;-75
2021/11/13 08:59:09;;;;;;;;;;;;;;;4.00;100.00;100786.25;5077672;28;20027;-76
2021/11/13 09:01:36;;;;;;;;;;;;;;;3.99;100.00;100794.41;5091573;28;20364;-75
2021/11/13 09:04:02;;;;;;;;;;;;;;;4.02;100.00;100783.47;5090997;28;19986;-76
2021/11/13 09:06:30;;;;;;;;;;;;;;;4.09;100.00;100790.28;5091474;28;19967;-76
2021/11/13 09:08:59;;;;;;;;;;;;;;;4.11;100.00;100787.50;5091277;28;20019;-76
2021/11/13 09:11:31;;;;;;;;;;;;;;;4.21;100.00;100782.50;5091344;28;20461;-75
2021/11/13 09:13:57;;;;;;;;;;;;;;;4.21;100.00;100786.09;5091648;28;19930;-76
2021/11/13 09:16:25;;;;;;;;;;;;;;;4.29;100.00;100791.03;5091498;28;19964;-76
2021/11/13 09:18:51;;;;;;;;;;;;;;;4.37;100.00;100786.13;5079005;28;19933;-76
2021/11/13 09:21:18;;;;;;;;;;;;;;;4.45;100.00;100783.88;5077245;28;20019;-76
2021/11/13 09:23:45;;;;;;;;;;;;;;;4.44;100.00;100792.88;5084068;28;19963;-77
2021/11/13 09:26:11;;;;;;;;;;;;;;;4.36;100.00;100797.81;5081263;28;20258;-77
2021/11/13 09:28:39;;;;;;;;;;;;;;;4.42;100.00;100794.78;5082176;28;20381;-76
2021/11/13 09:31:06;;;;;;;;;;;;;;;4.52;100.00;100808.59;5085484;28;19967;-76
2021/11/13 09:33:33;;;;;;;;;;;;;;;4.58;100.00;100819.00;5084053;28;20030;-76
2021/11/13 09:35:59;;;;;;;;;;;;;;;4.67;100.00;100817.66;5085178;28;19924;-76
2021/11/13 09:38:27;;;;;;;;;;;;;;;4.73;100.00;100809.25;5074502;28;20306;-74
2021/11/13 09:40:54;;;;;;;;;;;;;;;4.82;100.00;100811.44;5074540;28;19924;-74
2021/11/13 09:43:22;;;;;;;;;;;;;;;4.90;100.00;100807.44;5074829;28;20039;-74
2021/11/13 09:45:49;;;;;;;;;;;;;;;4.96;100.00;100813.34;5082208;28;20305;-75
2021/11/13 09:48:16;;;;;;;;;;;;;;;5.12;100.00;100817.88;5094592;28;20386;-75
2021/11/13 09:50:45;;;;;;;;;;;;;;;5.18;100.00;100815.69;5094616;28;19924;-75
2021/11/13 09:53:12;;;;;;;;;;;;;;;5.24;100.00;100810.88;5094820;28;20045;-74
2021/11/13 09:55:39;;;;;;;;;;;;;;;5.26;100.00;100807.16;5086417;28;19924;-75
2021/11/13 09:58:05;;;;;;;;;;;;;;;5.25;100.00;100800.06;5093921;28;20011;-75
2021/11/13 10:00:35;;;;;;;;;;;;;;;5.27;100.00;100802.66;5094682;28;20341;-74
2021/11/13 10:03:03;;;;;;;;;;;;;;;5.29;100.00;100798.03;5094248;28;19947;-74
2021/11/13 10:05:29;;;;;;;;;;;;;;;5.38;100.00;100802.88;5094568;28;20393;-75
2021/11/13 10:07:56;;;;;;;;;;;;;;;5.39;100.00;100798.38;5092571;28;19924;-77
2021/11/13 10:10:30;;;;;;;;;;;;;;;5.27;100.00;100795.44;5094423;28;19959;-75
2021/11/13 10:12:56;;;;;;;;;;;;;;;5.16;100.00;100800.59;5094194;28;19930;-74
2021/11/13 10:15:30;;;;;;;;;;;;;;;5.26;100.00;100803.59;5093918;28;20010;-76
2021/11/13 10:18:09;;;;;;;;;;;;;;;5.29;100.00;100795.34;5093936;28;19928;-75
2021/11/13 10:20:37;;;;;;;;;;;;;;;5.43;100.00;100791.84;5093992;28;20329;-75
2021/11/13 10:23:03;;;;;;;;;;;;;;;5.56;100.00;100779.41;5094029;28;20023;-75
2021/11/13 10:25:30;;;;;;;;;;;;;;;5.53;100.00;100782.25;5093943;28;20019;-75
2021/11/13 10:28:06;;;;;;;;;;;;;;;5.57;100.00;100777.56;5092237;28;20031;-75
2021/11/13 10:30:32;;;;;;;;;;;;;;;5.63;100.00;100779.91;5084277;28;20011;-75
2021/11/13 10:32:58;;;;;;;;;;;;;;;5.52;100.00;100781.41;5082808;28;20356;-75
2021/11/13 10:35:39;;;;;;;;;;;;;;;5.63;100.00;100778.06;5083402;28;19967;-75
2021/11/13 10:38:10;;;;;;;;;;;;;;;5.85;100.00;100774.97;5072680;28;20015;-75
2021/11/13 10:40:36;;;;;;;;;;;;;;;5.90;100.00;100766.59;5073203;28;19956;-75
2021/11/13 10:43:03;;;;;;;;;;;;;;;5.96;100.00;100759.94;5072817;28;20027;-74
2021/11/13 10:45:30;;;;;;;;;;;;;;;6.05;100.00;100758.56;5073443;28;19963;-75
2021/11/13 10:47:56;;;;;;;;;;;;;;;5.96;100.00;100754.56;5072579;28;19964;-75
2021/11/13 10:50:25;;;;;;;;;;;;;;;5.73;100.00;100759.53;5072865;28;20398;-75
2021/11/13 10:53:01;;;;;;;;;;;;;;;5.61;100.00;100760.25;5072735;28;19938;-75
2021/11/13 10:55:27;;;;;;;;;;;;;;;5.43;100.00;100755.03;5072877;28;20382;-75
2021/11/13 10:57:54;;;;;;;;;;;;;;;5.37;100.00;100750.00;5078578;28;19924;-75
2021/11/13 11:00:20;;;;;;;;;;;;;;;5.50;100.00;100753.69;5083059;28;19930;-75
2021/11/13 11:03:02;;;;;;;;;;;;;;;5.46;100.00;100745.91;5083360;28;19925;-76
2021/11/13 11:05:43;;;;;;;;;;;;;;;5.36;100.00;100746.44;5072209;28;20061;-75
2021/11/13 11:08:25;;;;;;;;;;;;;;;5.46;100.00;100735.97;5072613;28;20361;-76
2021/11/13 11:10:53;;;;;;;;;;;;;;;5.57;100.00;100738.03;5072427;28;20212;-75
2021/11/13 11:13:39;;;;;;;;;;;;;;;5.67;100.00;100731.13;5072707;28;20296;-75
2021/11/13 11:16:19;;;;;;;;;;;;;;;5.83;100.00;100732.91;5072734;28;20014;-75
2021/11/13 11:18:52;;;;;;;;;;;;;;;6.11;100.00;100726.69;5087986;28;20022;-75
2021/11/13 11:21:33;;;;;;;;;;;;;;;6.31;100.00;100719.19;5090865;28;20343;-75
2021/11/13 11:24:07;;;;;;;;;;;;;;;6.32;100.00;100710.13;5092815;28;19924;-75
2021/11/13 11:26:35;;;;;;;;;;;;;;;6.47;100.00;100717.25;5086918;28;20030;-75
2021/11/13 11:29:01;;;;;;;;;;;;;;;6.51;100.00;100720.63;5072319;28;19931;-75
2021/11/13 11:31:38;;;;;;;;;;;;;;;6.38;100.00;100708.88;5076826;28;19967;-75
2021/11/13 11:34:04;;;;;;;;;;;;;;;6.50;100.00;100711.66;5092895;28;19924;-75
2021/11/13 11:36:30;;;;;;;;;;;;;;;6.30;100.00;100712.06;5088499;28;20354;-75
2021/11/13 11:38:57;;;;;;;;;;;;;;;6.41;100.00;100714.94;5091045;28;20382;-75
2021/11/13 11:41:23;;;;;;;;;;;;;;;6.50;100.00;100718.88;5090591;28;20007;-75
2021/11/13 11:43:51;;;;;;;;;;;;;;;6.39;100.00;100719.56;5092746;28;19924;-74
2021/11/13 11:46:18;;;;;;;;;;;;;;;6.29;100.00;100729.19;5089872;28;19958;-74
2021/11/13 11:48:45;;;;;;;;;;;;;;;6.57;100.00;100735.53;5071919;28;20457;-75
2021/11/13 11:51:12;;;;;;;;;;;;;;;6.92;100.00;100735.06;5073381;28;20091;-75
2021/11/13 11:53:38;;;;;;;;;;;;;;;7.37;100.00;100730.25;5092291;28;19924;-75
2021/11/13 11:56:05;;;;;;;;;;;;;;;7.62;100.00;100721.34;5090836;28;19970;-74
2021/11/13 11:58:31;;;;;;;;;;;;;;;7.25;100.00;100726.56;5070734;28;19924;-73
2021/11/13 12:01:01;;;;;;;;;;;;;;;7.17;100.00;100732.47;5071537;28;20007;-73
2021/11/13 12:03:29;;;;;;;;;;;;;;;7.02;100.00;100739.75;5072220;28;19968;-74
2021/11/13 12:05:56;;;;;;;;;;;;;;;7.15;100.00;100736.25;5071650;28;19932;-74
2021/11/13 12:08:24;;;;;;;;;;;;;;;7.10;100.00;100725.75;5090096;28;20030;-74
2021/11/13 12:10:51;;;;;;;;;;;;;;;6.83;100.00;100737.41;5071740;28;20376;-74
2021/11/13 12:13:24;;;;;;;;;;;;;;;6.93;100.00;100740.34;5091229;28;19977;-74
2021/11/13 12:15:51;;;;;;;;;;;;;;;7.15;100.00;100744.38;5092148;28;20380;-74
2021/11/13 12:18:20;;;;;;;;;;;;;;;7.32;100.00;100738.69;5072820;28;19928;-74
2021/11/13 12:20:46;;;;;;;;;;;;;;;7.46;100.00;100732.34;5071536;28;19925;-74
2021/11/13 12:23:15;;;;;;;;;;;;;;;7.65;100.00;100737.34;5088933;28;19982;-75
2021/11/13 12:25:43;;;;;;;;;;;;;;;7.81;100.00;100734.44;5095391;28;19931;-75
2021/11/13 12:28:18;;;;;;;;;;;;;;;7.81;100.00;100720.09;5073390;28;19924;-74
2021/11/13 12:30:49;;;;;;;;;;;;;;;7.94;100.00;100722.81;5071337;28;20332;-74
2021/11/13 12:33:34;;;;;;;;;;;;;;;8.28;100.00;100723.09;5089803;28;20011;-75
2021/11/13 12:36:03;;;;;;;;;;;;;;;8.58;100.00;100720.06;5091716;28;20014;-75